Time;durP1;ratioP1;P1;durP2;ratioP2;P2;SDS_P1;SDS_P2;PMS_P1;PMS_P2;Temp;Humidity;BMP_temperature;BMP_pressure;BME280_temperature;BME280_humidity;BME280_pressure;Samples;Min_cycle;Max_cycle;Signal;HPM_P1;HPM_P2
2022/06/09 00:00:41;;;;;;;2.00;1.43;;;18.50;95.00;;;;;;5061027;28;20171;-80
2022/06/09 00:03:19;;;;;;;3.90;1.70;;;18.50;95.00;;;;;;5061542;28;20599;-80
2022/06/09 00:05:46;;;;;;;5.07;1.57;;;18.50;95.00;;;;;;5061606;28;20457;-80
2022/06/09 00:08:12;;;;;;;3.30;1.60;;;18.50;95.00;;;;;;5079952;28;20409;-80
2022/06/09 00:10:47;;;;;;;3.43;1.50;;;18.40;95.10;;;;;;5061543;28;20559;-80
2022/06/09 00:13:13;;;;;;;4.00;1.70;;;18.40;95.20;;;;;;5060954;28;20219;-80
2022/06/09 00:15:38;;;;;;;6.30;1.77;;;18.40;95.40;;;;;;5076567;28;20795;-79
2022/06/09 00:18:04;;;;;;;3.27;1.80;;;18.40;95.40;;;;;;5058050;28;20171;-79
2022/06/09 00:20:30;;;;;;;2.20;1.73;;;18.40;95.80;;;;;;5058152;28;20179;-79
2022/06/09 00:22:56;;;;;;;8.73;1.70;;;18.30;96.00;;;;;;5058108;28;20694;-81
2022/06/09 00:25:21;;;;;;;3.00;1.40;;;18.30;96.00;;;;;;5059450;28;20471;-79
2022/06/09 00:27:47;;;;;;;1.87;1.40;;;18.20;95.80;;;;;;5059379;28;20191;-80
2022/06/09 00:30:16;;;;;;;7.73;1.40;;;18.10;95.50;;;;;;5060776;28;20289;-81
2022/06/09 00:32:42;;;;;;;2.07;1.47;;;18.10;95.50;;;;;;5060841;28;20558;-81
2022/06/09 00:35:09;;;;;;;2.17;1.73;;;18.00;95.50;;;;;;5061533;28;20421;-80
2022/06/09 00:37:35;;;;;;;1.60;1.23;;;18.00;95.70;;;;;;5061360;28;20536;-81
2022/06/09 00:40:02;;;;;;;6.50;1.90;;;18.00;95.90;;;;;;5062311;28;20460;-81
2022/06/09 00:42:28;;;;;;;1.87;1.20;;;17.90;96.00;;;;;;5063951;28;20413;-81
2022/06/09 00:44:53;;;;;;;2.03;1.37;;;17.90;96.00;;;;;;5063241;28;20833;-82
2022/06/09 00:47:27;;;;;;;1.63;1.33;;;17.80;95.90;;;;;;5064400;28;20233;-81
2022/06/09 00:50:15;;;;;;;1.33;1.00;;;17.80;96.10;;;;;;5064973;28;20171;-81
2022/06/09 00:52:48;;;;;;;1.50;1.10;;;17.80;96.10;;;;;;5065373;28;20413;-82
2022/06/09 00:55:19;;;;;;;1.67;1.00;;;17.80;96.20;;;;;;5063183;28;20498;-81
2022/06/09 00:57:50;;;;;;;1.00;1.00;;;17.70;96.30;;;;;;5063309;28;20464;-81
2022/06/09 01:00:21;;;;;;;2.30;1.20;;;17.60;96.60;;;;;;5064995;28;20406;-81
2022/06/09 01:02:48;;;;;;;1.07;1.03;;;17.60;96.90;;;;;;5063805;28;20823;-81
2022/06/09 01:05:17;;;;;;;1.33;0.90;;;17.60;97.00;;;;;;5062849;28;20455;-81
2022/06/09 01:07:49;;;;;;;5.03;2.00;;;17.60;97.20;;;;;;5062939;28;20452;-81
2022/06/09 01:10:15;;;;;;;1.53;1.20;;;17.50;97.30;;;;;;5064150;28;20417;-81
2022/06/09 01:12:46;;;;;;;1.53;1.10;;;17.50;97.30;;;;;;5080513;28;20543;-81
2022/06/09 01:15:16;;;;;;;2.40;1.20;;;17.50;97.30;;;;;;5063947;28;20232;-81
2022/06/09 01:17:42;;;;;;;2.00;1.07;;;17.40;97.30;;;;;;5063921;28;20682;-81
2022/06/09 01:20:28;;;;;;;2.50;1.10;;;17.40;97.30;;;;;;5063463;28;20891;-80
2022/06/09 01:23:11;;;;;;;1.33;1.23;;;17.40;97.30;;;;;;5063285;28;20175;-80
2022/06/09 01:25:58;;;;;;;1.33;1.10;;;17.30;97.30;;;;;;5063938;28;20487;-80
2022/06/09 01:28:42;;;;;;;2.47;1.20;;;17.30;97.30;;;;;;5081932;28;20491;-80
2022/06/09 01:31:35;;;;;;;1.30;1.30;;;17.20;97.30;;;;;;5063129;28;20464;-80
2022/06/09 01:34:14;;;;;;;1.77;1.20;;;17.20;97.30;;;;;;5063443;28;20417;-80
2022/06/09 01:36:49;;;;;;;2.00;1.10;;;17.20;97.30;;;;;;5063793;28;20441;-80
2022/06/09 01:39:14;;;;;;;1.50;1.20;;;17.20;97.30;;;;;;5063818;28;20432;-81
2022/06/09 01:41:49;;;;;;;2.63;1.30;;;17.20;97.30;;;;;;5063085;28;20429;-80
2022/06/09 01:44:17;;;;;;;1.37;1.30;;;17.20;97.30;;;;;;5063392;28;20217;-80
2022/06/09 01:46:44;;;;;;;1.97;1.43;;;17.10;97.30;;;;;;5064054;28;20564;-81
2022/06/09 01:49:17;;;;;;;3.03;1.47;;;17.10;97.30;;;;;;5064467;28;20421;-80
2022/06/09 01:51:45;;;;;;;1.20;1.20;;;17.10;97.30;;;;;;5064193;28;20435;-81
2022/06/09 01:54:32;;;;;;;1.30;1.30;;;17.20;97.30;;;;;;5065115;28;20418;-81
2022/06/09 01:57:04;;;;;;;5.00;1.50;;;17.10;97.30;;;;;;5065700;28;20858;-81
2022/06/09 01:59:34;;;;;;;2.00;1.50;;;17.10;97.30;;;;;;5064902;28;20446;-80
2022/06/09 02:02:12;;;;;;;2.60;1.47;;;17.10;97.30;;;;;;5063355;28;20401;-80
2022/06/09 02:04:51;;;;;;;2.60;1.37;;;17.10;97.30;;;;;;5063780;28;20453;-80
2022/06/09 02:07:19;;;;;;;3.20;1.27;;;17.10;97.30;;;;;;5062950;28;20449;-81
2022/06/09 02:09:45;;;;;;;4.47;1.47;;;17.10;97.30;;;;;;5063357;28;20848;-80
2022/06/09 02:12:14;;;;;;;3.67;1.60;;;17.10;97.30;;;;;;5062130;28;20477;-81
2022/06/09 02:14:46;;;;;;;3.87;2.10;;;17.00;97.30;;;;;;5062737;28;20183;-81
2022/06/09 02:17:13;;;;;;;2.73;1.77;;;17.00;97.30;;;;;;5080512;28;20501;-81
2022/06/09 02:19:40;;;;;;;4.20;1.97;;;16.90;97.30;;;;;;5062249;28;20413;-81
2022/06/09 02:22:09;;;;;;;1.70;1.67;;;16.80;97.30;;;;;;5061975;28;20413;-81
2022/06/09 02:24:34;;;;;;;2.70;1.97;;;16.80;97.30;;;;;;5081477;28;20414;-81
2022/06/09 02:27:00;;;;;;;6.17;2.00;;;16.70;97.30;;;;;;5059074;28;20469;-81
2022/06/09 02:29:26;;;;;;;4.00;1.90;;;16.70;97.30;;;;;;5041588;28;20172;-81
2022/06/09 02:31:53;;;;;;;14.17;2.10;;;16.80;97.30;;;;;;5041211;28;20191;-81
2022/06/09 02:34:18;;;;;;;3.70;1.80;;;16.70;97.30;;;;;;5041425;28;20411;-81
2022/06/09 02:36:45;;;;;;;2.13;1.80;;;16.70;97.30;;;;;;5044567;28;20445;-81
2022/06/09 02:39:10;;;;;;;2.30;1.90;;;16.70;97.30;;;;;;5061812;28;20652;-81
2022/06/09 02:41:36;;;;;;;3.40;2.00;;;16.70;97.30;;;;;;5062665;28;20493;-81
2022/06/09 02:44:02;;;;;;;3.00;2.00;;;16.70;97.30;;;;;;5063269;28;20171;-81
2022/06/09 02:46:28;;;;;;;3.60;2.23;;;16.60;97.30;;;;;;5062344;28;20209;-81
2022/06/09 02:48:54;;;;;;;4.50;1.97;;;16.60;97.30;;;;;;5061232;28;20414;-81
2022/06/09 02:51:34;;;;;;;3.83;2.10;;;16.60;97.30;;;;;;5061587;28;20168;-81
2022/06/09 02:54:04;;;;;;;2.07;1.90;;;16.60;97.30;;;;;;5079548;28;20175;-81
2022/06/09 02:56:30;;;;;;;2.67;1.80;;;16.50;97.30;;;;;;5061846;28;20946;-81
2022/06/09 02:58:57;;;;;;;3.83;2.17;;;16.40;97.30;;;;;;5079167;28;20444;-81
2022/06/09 03:01:23;;;;;;;2.30;2.00;;;16.40;97.30;;;;;;5078638;28;20421;-82
2022/06/09 03:03:49;;;;;;;5.30;2.10;;;16.30;97.30;;;;;;5077852;28;20436;-81
2022/06/09 03:06:14;;;;;;;5.43;2.03;;;16.30;97.30;;;;;;5059374;28;21001;-81
2022/06/09 03:08:40;;;;;;;2.40;1.70;;;16.20;97.30;;;;;;5062416;28;20461;-81
2022/06/09 03:11:06;;;;;;;2.93;2.13;;;16.20;97.30;;;;;;5062230;28;20377;-81
2022/06/09 03:13:32;;;;;;;7.33;2.40;;;16.10;97.30;;;;;;5080108;28;20637;-81
2022/06/09 03:15:57;;;;;;;2.53;2.03;;;16.10;97.30;;;;;;5062520;28;20731;-81
2022/06/09 03:18:23;;;;;;;2.97;2.10;;;16.10;97.30;;;;;;5061725;28;20213;-81
2022/06/09 03:20:49;;;;;;;4.37;2.00;;;16.10;97.30;;;;;;5079223;28;20413;-81
2022/06/09 03:23:15;;;;;;;4.00;2.37;;;16.10;97.30;;;;;;5060611;28;20194;-81
2022/06/09 03:25:43;;;;;;;3.60;2.20;;;16.00;97.30;;;;;;5059615;28;20542;-81
2022/06/09 03:28:09;;;;;;;3.47;2.00;;;16.00;97.30;;;;;;5079184;28;20555;-81
2022/06/09 03:30:35;;;;;;;2.90;2.07;;;16.00;97.30;;;;;;5061095;28;20429;-81
2022/06/09 03:33:01;;;;;;;5.30;2.07;;;16.10;97.30;;;;;;5061679;28;20988;-81
2022/06/09 03:35:27;;;;;;;2.47;1.97;;;16.00;97.30;;;;;;5062041;28;20175;-81
2022/06/09 03:37:53;;;;;;;3.30;2.13;;;16.00;97.30;;;;;;5061259;28;20441;-81
2022/06/09 03:40:20;;;;;;;9.70;2.20;;;16.00;97.30;;;;;;5061848;28;20428;-81
2022/06/09 03:42:46;;;;;;;3.17;2.47;;;16.00;97.30;;;;;;5061646;28;20183;-81
2022/06/09 03:45:12;;;;;;;3.20;2.10;;;16.00;97.30;;;;;;5061821;28;20487;-81
2022/06/09 03:47:39;;;;;;;3.27;2.17;;;16.00;97.30;;;;;;5061602;28;20199;-80
2022/06/09 03:50:07;;;;;;;2.90;2.10;;;16.00;97.30;;;;;;5061346;28;20484;-81
2022/06/09 03:52:32;;;;;;;6.60;2.67;;;16.00;97.30;;;;;;5061434;28;20992;-81
2022/06/09 03:54:58;;;;;;;5.97;2.40;;;16.00;97.30;;;;;;5061467;28;20508;-81
2022/06/09 03:57:24;;;;;;;3.27;2.10;;;16.00;97.30;;;;;;5061613;28;20199;-81
2022/06/09 03:59:50;;;;;;;3.27;2.33;;;16.00;97.30;;;;;;5062615;28;20182;-81
2022/06/09 04:02:16;;;;;;;5.37;2.27;;;16.00;97.30;;;;;;5063395;28;20414;-81
2022/06/09 04:04:42;;;;;;;2.60;2.13;;;16.10;97.30;;;;;;5062655;28;20179;-81
2022/06/09 04:07:10;;;;;;;5.80;2.03;;;16.10;97.30;;;;;;5063685;28;20483;-81
2022/06/09 04:09:37;;;;;;;5.10;2.30;;;16.10;97.30;;;;;;5062737;28;20316;-81
2022/06/09 04:12:03;;;;;;;4.23;2.40;;;16.10;97.30;;;;;;5062095;28;20465;-81
2022/06/09 04:14:29;;;;;;;3.20;2.50;;;16.10;97.30;;;;;;5063458;28;20409;-81
2022/06/09 04:16:55;;;;;;;2.93;2.30;;;16.10;97.30;;;;;;5062275;28;20898;-81
2022/06/09 04:19:22;;;;;;;4.23;2.33;;;16.10;97.30;;;;;;5061646;28;20693;-81
2022/06/09 04:21:48;;;;;;;3.50;2.37;;;16.10;97.30;;;;;;5062350;28;20429;-81
2022/06/09 04:24:14;;;;;;;5.23;2.60;;;16.00;97.30;;;;;;5070912;28;20491;-81
2022/06/09 04:26:40;;;;;;;7.80;2.77;;;16.00;97.30;;;;;;5069909;28;20536;-81
2022/06/09 04:29:11;;;;;;;5.63;2.50;;;16.00;97.30;;;;;;5041025;28;20419;-80
2022/06/09 04:31:37;;;;;;;3.67;2.47;;;16.00;97.30;;;;;;5040904;28;20509;-80
2022/06/09 04:34:03;;;;;;;6.63;3.37;;;16.00;97.30;;;;;;5040698;28;20415;-80
2022/06/09 04:36:28;;;;;;;7.50;4.00;;;16.00;97.30;;;;;;5042739;28;20433;-80
2022/06/09 04:38:54;;;;;;;5.83;2.70;;;16.00;97.30;;;;;;5061681;28;20175;-80
2022/06/09 04:41:20;;;;;;;7.00;3.70;;;16.00;97.30;;;;;;5061839;28;20186;-80
2022/06/09 04:43:47;;;;;;;6.03;2.70;;;16.00;97.30;;;;;;5060276;28;20187;-80
2022/06/09 04:46:16;;;;;;;3.17;2.50;;;16.00;97.30;;;;;;5060434;28;20210;-80
2022/06/09 04:48:41;;;;;;;3.60;2.60;;;15.90;97.30;;;;;;5060319;28;20425;-80
2022/06/09 04:51:10;;;;;;;4.10;2.70;;;15.90;97.30;;;;;;5060406;28;20410;-80
2022/06/09 04:53:36;;;;;;;6.20;3.00;;;15.90;97.30;;;;;;5056786;28;20720;-79
2022/06/09 04:56:02;;;;;;;4.93;2.87;;;15.90;97.30;;;;;;5059376;28;20445;-80
2022/06/09 04:58:28;;;;;;;2.80;2.53;;;15.90;97.30;;;;;;5060361;28;20425;-80
2022/06/09 05:00:53;;;;;;;5.47;2.93;;;15.80;97.30;;;;;;5059557;28;20433;-80
2022/06/09 05:03:20;;;;;;;3.90;2.90;;;15.90;97.30;;;;;;5059411;28;20536;-79
2022/06/09 05:05:47;;;;;;;3.27;2.77;;;15.80;97.30;;;;;;5059447;28;20484;-80
2022/06/09 05:08:13;;;;;;;4.33;2.70;;;15.80;97.30;;;;;;5059276;28;20419;-79
2022/06/09 05:10:41;;;;;;;5.00;3.10;;;15.90;97.30;;;;;;5076468;28;20406;-79
2022/06/09 05:13:08;;;;;;;8.60;3.60;;;15.80;97.30;;;;;;5059703;28;20472;-79
2022/06/09 05:15:44;;;;;;;5.47;2.70;;;15.80;97.30;;;;;;5060421;28;20484;-80
2022/06/09 05:18:11;;;;;;;5.33;3.03;;;15.80;97.30;;;;;;5059510;28;20452;-80
2022/06/09 05:20:37;;;;;;;3.73;2.70;;;15.80;97.30;;;;;;5060251;28;20418;-80
2022/06/09 05:23:02;;;;;;;7.00;3.20;;;15.90;97.30;;;;;;5061567;28;20809;-80
2022/06/09 05:25:28;;;;;;;4.60;3.07;;;15.90;97.30;;;;;;5061022;28;20495;-79
2022/06/09 05:27:54;;;;;;;5.20;3.63;;;15.90;97.30;;;;;;5063612;28;20203;-80
2022/06/09 05:30:24;;;;;;;5.00;3.37;;;15.90;97.30;;;;;;5064403;28;20610;-79
2022/06/09 05:32:50;;;;;;;5.33;3.03;;;16.00;97.30;;;;;;5064711;28;20679;-80
2022/06/09 05:35:17;;;;;;;12.33;3.13;;;16.00;97.30;;;;;;5064808;28;20525;-80
2022/06/09 05:45:58;;;;;;;3.87;2.87;;;16.00;97.30;;;;;;5082061;28;20439;-80
2022/06/09 05:48:24;;;;;;;3.73;2.90;;;16.00;97.30;;;;;;5064592;28;20414;-80
2022/06/09 05:50:50;;;;;;;5.90;3.57;;;16.10;97.30;;;;;;5064816;28;20179;-80
2022/06/09 05:53:16;;;;;;;4.23;3.20;;;16.00;97.30;;;;;;5064544;28;20186;-79
2022/06/09 05:55:42;;;;;;;8.63;3.30;;;16.00;97.30;;;;;;5065758;28;20421;-80
2022/06/09 05:58:08;;;;;;;4.83;3.20;;;16.10;97.30;;;;;;5063519;28;20172;-80
2022/06/09 06:00:33;;;;;;;6.70;3.27;;;16.10;97.30;;;;;;5077055;28;20175;-80
2022/06/09 06:02:59;;;;;;;4.77;2.90;;;16.10;97.30;;;;;;5077241;28;20175;-79
2022/06/09 06:08:09;;;;;;;3.63;2.77;;;16.20;97.30;;;;;;5077710;28;20601;-79
2022/06/09 06:10:34;;;;;;;4.53;2.90;;;16.20;97.30;;;;;;5059340;28;20639;-79
2022/06/09 06:13:00;;;;;;;6.50;3.10;;;16.20;97.30;;;;;;5059181;28;20589;-79
2022/06/09 06:15:26;;;;;;;5.07;3.20;;;16.20;97.30;;;;;;5060176;28;20186;-79
2022/06/09 06:17:53;;;;;;;3.63;2.80;;;16.20;97.30;;;;;;5059068;28;20348;-79
2022/06/09 06:20:19;;;;;;;4.97;3.47;;;16.20;97.30;;;;;;5077558;28;20207;-80
2022/06/09 06:22:45;;;;;;;3.73;2.70;;;16.20;97.30;;;;;;5059462;28;20455;-79
2022/06/09 06:25:10;;;;;;;3.50;2.83;;;16.20;97.30;;;;;;5059460;28;20901;-80
2022/06/09 06:27:36;;;;;;;5.03;2.90;;;16.30;97.30;;;;;;5060238;28;20187;-80
2022/06/09 06:30:02;;;;;;;6.73;2.87;;;16.30;97.30;;;;;;5060133;28;20167;-80
2022/06/09 06:32:28;;;;;;;7.13;3.57;;;16.30;97.30;;;;;;5059286;28;20175;-80
2022/06/09 06:34:53;;;;;;;3.57;2.77;;;16.40;97.30;;;;;;5059067;28;20797;-80
2022/06/09 06:37:19;;;;;;;6.57;3.03;;;16.50;97.30;;;;;;5059894;28;20194;-80
2022/06/09 06:39:44;;;;;;;4.47;3.77;;;16.50;97.30;;;;;;5059812;28;20182;-80
2022/06/09 06:42:10;;;;;;;5.27;3.50;;;16.60;97.30;;;;;;5059497;28;20301;-79
2022/06/09 06:44:35;;;;;;;7.07;3.53;;;16.60;97.30;;;;;;5077783;28;20175;-80
2022/06/09 06:47:01;;;;;;;5.70;3.67;;;16.60;97.30;;;;;;5059658;28;20657;-79
2022/06/09 06:49:27;;;;;;;6.07;3.10;;;16.70;97.30;;;;;;5059576;28;20193;-79
2022/06/09 06:51:52;;;;;;;4.87;3.30;;;16.70;97.30;;;;;;5060140;28;20266;-80
2022/06/09 06:54:18;;;;;;;4.03;2.80;;;16.80;97.30;;;;;;5060771;28;20167;-80
2022/06/09 06:56:44;;;;;;;9.83;3.50;;;16.80;97.30;;;;;;5061022;28;20232;-79
2022/06/09 06:59:09;;;;;;;6.50;3.70;;;16.80;97.30;;;;;;5060256;28;20198;-80
2022/06/09 07:01:35;;;;;;;7.20;3.60;;;16.90;97.30;;;;;;5060314;28;20174;-80
2022/06/09 07:04:01;;;;;;;6.73;3.80;;;16.90;97.30;;;;;;5079160;28;20185;-79
2022/06/09 07:06:26;;;;;;;4.80;3.40;;;17.00;97.30;;;;;;5060350;28;20272;-80
2022/06/09 07:08:52;;;;;;;4.50;3.03;;;17.00;97.30;;;;;;5077973;28;20397;-80
2022/06/09 07:11:18;;;;;;;8.13;4.03;;;17.00;97.30;;;;;;5059596;28;20233;-80
2022/06/09 07:13:43;;;;;;;5.07;3.60;;;17.10;97.30;;;;;;5060875;28;20222;-79
2022/06/09 07:16:12;;;;;;;7.23;4.10;;;17.10;97.30;;;;;;5077550;28;20194;-80
2022/06/09 07:18:38;;;;;;;7.97;4.07;;;17.10;97.30;;;;;;5060039;28;20201;-80
2022/06/09 07:21:04;;;;;;;4.53;3.43;;;17.10;97.30;;;;;;5060030;28;20445;-80
2022/06/09 07:23:30;;;;;;;5.13;3.00;;;17.20;97.30;;;;;;5077334;28;20420;-80
2022/06/09 07:25:57;;;;;;;5.50;3.63;;;17.20;97.30;;;;;;5058072;28;20488;-79
2022/06/09 07:28:24;;;;;;;5.87;3.60;;;17.30;97.30;;;;;;5076355;28;20406;-79
2022/06/09 07:30:55;;;;;;;6.53;3.50;;;17.30;97.30;;;;;;5076267;28;20753;-80
2022/06/09 07:33:21;;;;;;;7.20;4.03;;;17.40;97.30;;;;;;5075545;28;20780;-79
2022/06/09 07:35:51;;;;;;;6.17;3.90;;;17.40;97.30;;;;;;5058124;28;20467;-80
2022/06/09 07:38:17;;;;;;;7.03;4.20;;;17.40;97.30;;;;;;5057638;28;20206;-80
2022/06/09 07:40:43;;;;;;;4.87;3.63;;;17.50;97.30;;;;;;5058081;28;20416;-81
2022/06/09 07:43:10;;;;;;;6.70;3.73;;;17.50;97.30;;;;;;5058286;28;20938;-79
2022/06/09 07:45:36;;;;;;;9.80;4.00;;;17.60;97.30;;;;;;5057719;28;20703;-79
2022/06/09 07:48:02;;;;;;;5.30;3.60;;;17.70;97.30;;;;;;5058204;28;20482;-79
2022/06/09 07:50:28;;;;;;;7.80;4.20;;;17.70;97.30;;;;;;5058747;28;20904;-80
2022/06/09 07:52:55;;;;;;;3.73;3.17;;;17.80;97.30;;;;;;5058901;28;20182;-79
2022/06/09 07:55:22;;;;;;;7.80;3.27;;;17.90;97.30;;;;;;5057797;28;20479;-79
2022/06/09 07:57:48;;;;;;;4.60;3.20;;;17.90;97.30;;;;;;5058074;28;20467;-80
2022/06/09 08:00:15;;;;;;;6.70;3.40;;;18.00;97.30;;;;;;5057380;28;20418;-80
2022/06/09 08:02:43;;;;;;;4.77;3.40;;;18.00;97.30;;;;;;5058403;28;20417;-80
2022/06/09 08:05:10;;;;;;;8.87;3.13;;;18.00;97.30;;;;;;5075006;28;20890;-80
2022/06/09 08:07:36;;;;;;;10.17;3.70;;;18.00;97.30;;;;;;5058831;28;21040;-79
2022/06/09 08:10:03;;;;;;;5.00;3.43;;;18.00;97.30;;;;;;5058425;28;20512;-79
2022/06/09 08:12:28;;;;;;;7.00;3.50;;;18.10;97.30;;;;;;5057348;28;20457;-79
2022/06/09 08:14:54;;;;;;;7.27;4.23;;;18.10;97.30;;;;;;5058224;28;20457;-79
2022/06/09 08:17:19;;;;;;;6.67;3.37;;;18.10;97.30;;;;;;5057487;28;20217;-80
2022/06/09 08:19:47;;;;;;;7.60;3.97;;;18.10;97.30;;;;;;5058083;28;20179;-81
2022/06/09 08:22:13;;;;;;;4.93;3.63;;;18.20;97.30;;;;;;5057834;28;20170;-80
2022/06/09 08:24:39;;;;;;;7.73;3.50;;;18.20;97.30;;;;;;5058597;28;20851;-79
2022/06/09 08:27:05;;;;;;;8.60;3.63;;;18.20;97.30;;;;;;5057221;28;20464;-79
2022/06/09 08:29:30;;;;;;;7.23;4.10;;;18.30;97.30;;;;;;5058855;28;20655;-80
2022/06/09 08:31:57;;;;;;;8.20;4.93;;;18.30;97.30;;;;;;5058612;28;20421;-80
2022/06/09 08:34:23;;;;;;;6.03;4.30;;;18.40;97.30;;;;;;5058168;28;20235;-81
2022/06/09 08:36:48;;;;;;;7.50;4.50;;;18.40;97.30;;;;;;5058405;28;20834;-79
2022/06/09 08:39:14;;;;;;;9.23;5.57;;;18.40;97.30;;;;;;5058393;28;20413;-79
2022/06/09 08:42:09;;;;;;;8.00;5.17;;;18.50;97.30;;;;;;5057711;28;20265;-80
2022/06/09 08:45:23;;;;;;;7.30;4.60;;;18.50;97.30;;;;;;5057955;28;20205;-80
2022/06/09 08:47:52;;;;;;;8.70;5.07;;;18.60;97.30;;;;;;5041826;28;20441;-80
2022/06/09 08:50:29;;;;;;;6.87;4.73;;;18.70;97.30;;;;;;5058455;28;20413;-81
2022/06/09 08:53:18;;;;;;;10.80;4.57;;;18.70;97.30;;;;;;5058509;28;20448;-81
2022/06/09 08:55:52;;;;;;;9.70;4.70;;;18.80;97.30;;;;;;5056451;28;20417;-81
2022/06/09 08:58:28;;;;;;;9.30;4.73;;;18.80;97.30;;;;;;5056184;28;20432;-81
2022/06/09 09:01:22;;;;;;;12.13;4.47;;;18.80;97.30;;;;;;5058212;28;20922;-81
2022/06/09 09:03:56;;;;;;;7.43;4.87;;;18.80;97.30;;;;;;5060017;28;20424;-80
2022/06/09 09:06:35;;;;;;;11.80;4.80;;;18.80;97.30;;;;;;5060533;28;20458;-80
2022/06/09 09:09:23;;;;;;;8.80;4.93;;;18.80;97.30;;;;;;5059363;28;20789;-81
2022/06/09 09:12:27;;;;;;;9.43;4.70;;;18.80;97.30;;;;;;5078108;28;20957;-81
2022/06/09 09:15:22;;;;;;;11.60;5.27;;;18.80;97.30;;;;;;5059923;28;20482;-80
2022/06/09 09:18:35;;;;;;;8.30;4.87;;;18.90;97.30;;;;;;5058724;28;20502;-81
2022/06/09 09:21:27;;;;;;;9.90;5.50;;;19.00;97.30;;;;;;5059690;28;20421;-81
2022/06/09 09:24:22;;;;;;;9.73;4.30;;;19.10;97.30;;;;;;5060001;28;20401;-80
2022/06/09 09:27:10;;;;;;;6.27;4.33;;;19.10;97.30;;;;;;5059147;28;20465;-81
2022/06/09 09:29:47;;;;;;;6.90;4.40;;;19.20;97.30;;;;;;5058996;28;20618;-81
2022/06/09 09:32:23;;;;;;;9.07;4.17;;;19.20;97.30;;;;;;5059477;28;20420;-80
2022/06/09 09:34:51;;;;;;;8.43;4.70;;;19.30;97.30;;;;;;5059546;28;20417;-80
2022/06/09 09:37:26;;;;;;;9.80;4.30;;;19.30;97.30;;;;;;5059057;28;20490;-81
2022/06/09 09:39:59;;;;;;;12.57;4.20;;;19.30;97.30;;;;;;5059784;28;20795;-81
2022/06/09 09:42:36;;;;;;;6.97;4.43;;;19.30;97.30;;;;;;5058376;28;20410;-81
2022/06/09 09:45:11;;;;;;;7.63;4.00;;;19.30;97.30;;;;;;5058856;28;21073;-80
2022/06/09 09:47:54;;;;;;;6.40;4.07;;;19.30;97.30;;;;;;5059238;28;20547;-80
2022/06/09 09:50:26;;;;;;;7.73;4.00;;;19.30;97.30;;;;;;5059952;28;20785;-79
2022/06/09 09:52:59;;;;;;;11.13;4.27;;;19.30;97.20;;;;;;5058645;28;20405;-80
2022/06/09 09:55:38;;;;;;;6.70;4.70;;;19.20;97.20;;;;;;5059360;28;20425;-80
2022/06/09 09:58:20;;;;;;;7.00;4.67;;;19.20;97.00;;;;;;5057241;28;20830;-81
2022/06/09 10:00:49;;;;;;;8.37;4.73;;;19.20;96.80;;;;;;5055987;28;20433;-81
2022/06/09 10:09:09;;;;;;;8.60;5.10;;;19.10;97.30;;;;;;5076944;28;20478;-81
2022/06/09 10:11:54;;;;;;;7.90;4.67;;;19.10;97.30;;;;;;5057359;28;21057;-81
2022/06/09 10:14:39;;;;;;;9.10;4.80;;;19.10;96.90;;;;;;5056348;28;20562;-81
2022/06/09 10:17:18;;;;;;;8.57;4.70;;;19.10;96.10;;;;;;5057599;28;20464;-80
2022/06/09 10:19:49;;;;;;;10.40;4.30;;;19.20;96.30;;;;;;5058094;28;20428;-80
2022/06/09 10:22:19;;;;;;;10.63;4.30;;;19.30;96.40;;;;;;5059334;28;20443;-82
2022/06/09 10:24:53;;;;;;;9.70;4.50;;;19.40;96.10;;;;;;5059276;28;20418;-80
2022/06/09 10:27:22;;;;;;;7.90;4.50;;;19.40;96.20;;;;;;5059075;28;20480;-79
2022/06/09 10:30:08;;;;;;;8.00;4.60;;;19.40;96.20;;;;;;5059119;28;20851;-81
2022/06/09 10:32:47;;;;;;;10.27;4.67;;;19.40;96.40;;;;;;5059187;28;20420;-80
2022/06/09 10:35:34;;;;;;;11.40;5.00;;;19.40;96.10;;;;;;5058736;28;20418;-80
2022/06/09 10:38:32;;;;;;;9.27;5.30;;;19.40;96.40;;;;;;5057288;28;20438;-81
2022/06/09 10:41:01;;;;;;;10.50;5.53;;;19.40;97.30;;;;;;5057674;28;20432;-80
2022/06/09 10:43:54;;;;;;;8.43;5.63;;;19.30;97.30;;;;;;5077129;28;20414;-80
2022/06/09 10:46:29;;;;;;;7.13;5.20;;;19.20;97.30;;;;;;5059416;28;20472;-80
2022/06/09 10:55:26;;;;;;;12.47;6.37;;;18.80;97.30;;;;;;5077564;28;20432;-81
2022/06/09 10:57:59;;;;;;;12.63;5.97;;;18.80;97.30;;;;;;5059537;28;20457;-80
2022/06/09 11:00:29;;;;;;;12.63;6.73;;;18.70;97.30;;;;;;5058628;28;20471;-81
2022/06/09 11:02:58;;;;;;;11.23;6.70;;;18.70;97.30;;;;;;5058505;28;20416;-80
2022/06/09 11:06:00;;;;;;;11.20;5.47;;;18.70;97.30;;;;;;5058816;28;20417;-79
2022/06/09 11:09:07;;;;;;;13.53;7.33;;;18.70;97.30;;;;;;5058822;28;20482;-81
2022/06/09 11:11:59;;;;;;;15.67;6.90;;;18.70;97.30;;;;;;5044931;28;20461;-79
2022/06/09 11:14:49;;;;;;;16.33;8.57;;;18.70;97.30;;;;;;5058257;28;20415;-79
2022/06/09 11:17:24;;;;;;;12.83;6.87;;;18.70;97.30;;;;;;5058507;28;20441;-80
2022/06/09 11:20:12;;;;;;;13.73;7.00;;;18.60;97.30;;;;;;5058301;28;20451;-80
2022/06/09 11:22:59;;;;;;;13.13;7.10;;;18.60;97.30;;;;;;5058225;28;20469;-80
2022/06/09 11:25:37;;;;;;;11.87;6.70;;;18.50;97.30;;;;;;5057535;28;20450;-80
2022/06/09 11:28:20;;;;;;;10.80;6.80;;;18.50;97.30;;;;;;5057304;28;20533;-78
2022/06/09 11:31:22;;;;;;;8.37;6.00;;;18.50;97.30;;;;;;5057546;28;20432;-79
2022/06/09 11:34:12;;;;;;;11.03;5.50;;;18.40;97.30;;;;;;5057234;28;20424;-80
2022/06/09 11:37:05;;;;;;;9.07;5.33;;;18.40;97.30;;;;;;5075932;28;20476;-80
2022/06/09 11:39:50;;;;;;;9.07;5.10;;;18.30;97.30;;;;;;5057095;28;20421;-80
2022/06/09 11:42:29;;;;;;;10.67;5.77;;;18.30;97.30;;;;;;5057827;28;20481;-80
2022/06/09 11:44:58;;;;;;;5.67;4.33;;;18.30;97.30;;;;;;5057885;28;20441;-80
2022/06/09 11:47:29;;;;;;;9.63;5.33;;;18.30;97.30;;;;;;5057455;28;20881;-79
2022/06/09 11:50:00;;;;;;;7.43;4.10;;;18.30;97.30;;;;;;5057305;28;20413;-80
2022/06/09 11:52:31;;;;;;;6.50;4.00;;;18.30;97.30;;;;;;5054153;28;20783;-79
2022/06/09 11:55:01;;;;;;;10.20;4.17;;;18.40;97.30;;;;;;5052376;28;20540;-79
2022/06/09 11:57:46;;;;;;;10.90;4.83;;;18.40;97.30;;;;;;5052266;28;20441;-79
2022/06/09 12:00:18;;;;;;;7.63;4.03;;;18.40;97.30;;;;;;5052971;28;20413;-79
2022/06/09 12:03:09;;;;;;;8.40;4.50;;;18.40;97.30;;;;;;5052674;28;20462;-79
2022/06/09 12:06:05;;;;;;;9.17;4.00;;;18.50;97.30;;;;;;5052653;28;20460;-80
2022/06/09 12:08:40;;;;;;;6.17;4.00;;;18.50;97.30;;;;;;5052251;28;20421;-80
2022/06/09 12:11:14;;;;;;;8.60;4.80;;;18.60;97.30;;;;;;5070231;28;20413;-79
2022/06/09 12:13:55;;;;;;;7.37;4.93;;;18.60;97.30;;;;;;5052572;28;20899;-80
2022/06/09 12:16:33;;;;;;;10.43;4.73;;;18.70;97.30;;;;;;5052131;28;20437;-79
2022/06/09 12:19:17;;;;;;;20.60;5.10;;;18.70;97.30;;;;;;5052069;28;20786;-79
2022/06/09 12:21:49;;;;;;;7.60;4.80;;;18.80;97.30;;;;;;5052182;28;20911;-79
2022/06/09 12:24:21;;;;;;;7.10;5.30;;;18.80;97.30;;;;;;5052576;28;20449;-79
2022/06/09 12:27:16;;;;;;;6.87;4.13;;;18.80;97.30;;;;;;5051799;28;20477;-80
2022/06/09 12:29:45;;;;;;;7.27;4.30;;;18.80;97.30;;;;;;5033361;28;20424;-79
2022/06/09 12:32:16;;;;;;;9.63;5.30;;;18.80;97.30;;;;;;5053632;28;20475;-80
2022/06/09 12:34:49;;;;;;;9.30;4.73;;;18.90;97.30;;;;;;5058100;28;20432;-79
2022/06/09 12:37:28;;;;;;;10.40;5.00;;;18.90;97.30;;;;;;5058066;28;20882;-79
2022/06/09 12:40:00;;;;;;;11.23;5.63;;;18.80;97.30;;;;;;5057635;28;20421;-79
2022/06/09 12:42:52;;;;;;;11.30;5.87;;;18.80;97.30;;;;;;5058834;28;20428;-79
2022/06/09 12:45:22;;;;;;;12.67;6.20;;;18.80;97.30;;;;;;5054707;28;20417;-79
2022/06/09 12:48:09;;;;;;;9.90;5.40;;;18.80;97.30;;;;;;5059705;28;20441;-80
2022/06/09 12:50:40;;;;;;;14.37;6.17;;;18.80;97.30;;;;;;5059739;28;20417;-78
2022/06/09 12:53:07;;;;;;;11.63;5.93;;;18.80;97.30;;;;;;5077055;28;20418;-79
2022/06/09 12:55:51;;;;;;;10.23;5.63;;;18.80;97.30;;;;;;5078142;28;20724;-79
2022/06/09 12:58:36;;;;;;;6.83;4.30;;;18.80;97.30;;;;;;5059072;28;20427;-79
2022/06/09 13:01:04;;;;;;;13.03;5.10;;;18.80;97.30;;;;;;5059482;28;20495;-79
2022/06/09 13:03:55;;;;;;;10.30;5.07;;;18.80;97.30;;;;;;5059454;28;20459;-79
2022/06/09 13:06:32;;;;;;;10.10;4.30;;;18.90;97.30;;;;;;5059217;28;20472;-79
2022/06/09 13:09:16;;;;;;;12.03;4.60;;;18.90;97.30;;;;;;5058600;28;20475;-79
2022/06/09 13:14:29;;;;;;;7.43;4.70;;;19.10;97.30;;;;;;5058041;28;20406;-79
2022/06/09 13:17:00;;;;;;;10.43;4.90;;;19.10;97.30;;;;;;5056296;28;20488;-79
2022/06/09 13:19:30;;;;;;;9.20;5.97;;;19.10;97.30;;;;;;5056647;28;20485;-79
2022/06/09 13:22:00;;;;;;;11.53;5.20;;;19.10;97.30;;;;;;5055653;28;20469;-79
2022/06/09 13:24:30;;;;;;;6.53;4.77;;;19.20;97.30;;;;;;5056396;28;20418;-78
2022/06/09 13:26:57;;;;;;;7.83;4.97;;;19.20;97.30;;;;;;5056302;28;20478;-77
2022/06/09 13:29:38;;;;;;;12.67;6.33;;;19.20;97.30;;;;;;5056473;28;20426;-79
2022/06/09 13:32:42;;;;;;;9.17;5.23;;;19.30;97.30;;;;;;5057020;28;20920;-79
2022/06/09 13:35:29;;;;;;;9.33;5.20;;;19.40;97.30;;;;;;5056762;28;20429;-80